Página principal
METAR-TAF:

METAR-TAF

Aeroportos :

Utopia Creek, Alasca, Estados Unidos

latitude: 66-59N, longitude: 153-42W, altura: 372 m

Observação actual do tempo

O boletim foi feito há 13 minutos, às 17:55 UTC
Vento 5 kt com direcção variável
Temperatura 18°C
Humidade 49%
Pressão 1016 hPa
Visibilidade: 16.1 km
Céu limpo

METAR: PAIM 201755Z AUTO VRB05KT 10SM CLR 18/07 A3000 RMK AO2 SLP151 T01840068 10181 20122 57002

Hora: 10:08 (18:08 UTC)


TAF: em falta

Observações e previsões do tempo de mais de 4000 aeroportos (mensagens METAR e TAF).

As estações disponíveis são os pontos amarelos e vermelhos sobre o mapa.

Mova o rato sobre o mapa para ver o nome da estação.

Depois clique no ponto para visualizar as observações e previsões meteorológicas.

Para alterar o mapa : clique nos botões verdes com uma cruz preta para aumentar o zoom; no botão verde com uma pitada de zoom; ou nas setas verdes para mapas adjacentes.


METAR-TAF: